Time;durP1;ratioP1;P1;durP2;ratioP2;P2;SDS_P1;SDS_P2;PMS_P1;PMS_P2;Temp;Humidity;BMP_temperature;BMP_pressure;BME280_temperature;BME280_humidity;BME280_pressure;Samples;Min_cycle;Max_cycle;Signal;HPM_P1;HPM_P2
2021/01/06 08:33:21;;;;;;;20.97;14.30;;;4.30;99.90;;;;;;5049947;28;21038;-81
2021/01/06 08:35:50;;;;;;;18.17;12.97;;;4.60;99.90;;;;;;5050633;28;20629;-83
2021/01/06 08:38:33;;;;;;;18.07;12.57;;;4.40;99.90;;;;;;5055826;28;20509;-83
2021/01/06 08:41:21;;;;;;;15.83;10.90;;;4.40;99.90;;;;;;5073030;28;20200;-82
2021/01/06 08:43:48;;;;;;;18.70;11.77;;;4.40;99.90;;;;;;5052442;28;20172;-84
2021/01/06 08:46:26;;;;;;;20.73;13.80;;;4.40;99.90;;;;;;5048856;28;20200;-82
2021/01/06 08:49:07;;;;;;;22.57;13.17;;;4.40;99.90;;;;;;5049368;28;20169;-82
2021/01/06 08:51:34;;;;;;;21.37;13.83;;;4.40;99.90;;;;;;5049900;28;20644;-82
2021/01/06 08:54:14;;;;;;;21.60;14.77;;;4.40;99.90;;;;;;5048494;28;20200;-82
2021/01/06 08:56:40;;;;;;;21.67;14.47;;;4.60;99.90;;;;;;5048817;28;20251;-83
2021/01/06 08:59:25;;;;;;;22.00;14.10;;;4.40;99.90;;;;;;5048187;28;20269;-84
2021/01/06 09:01:54;;;;;;;22.67;14.87;;;4.40;99.90;;;;;;5047976;28;20209;-82
2021/01/06 09:04:38;;;;;;;24.50;15.33;;;4.40;99.90;;;;;;5043847;28;20173;-82
2021/01/06 09:07:03;;;;;;;22.67;13.73;;;4.40;99.90;;;;;;5040684;28;20197;-82
2021/01/06 09:09:54;;;;;;;25.20;15.97;;;4.30;99.90;;;;;;5047293;28;20184;-83
2021/01/06 09:12:38;;;;;;;24.97;17.27;;;4.30;99.90;;;;;;5045741;28;20273;-82
2021/01/06 09:15:14;;;;;;;26.47;15.03;;;4.40;99.90;;;;;;5045931;28;20728;-83
2021/01/06 09:18:06;;;;;;;28.50;17.53;;;4.30;99.90;;;;;;5047723;28;20175;-82
2021/01/06 09:20:57;;;;;;;28.13;17.73;;;4.30;99.90;;;;;;5048917;28;20208;-84
2021/01/06 09:23:23;;;;;;;26.73;17.20;;;4.30;99.90;;;;;;5047554;28;20268;-84
2021/01/06 09:25:49;;;;;;;24.00;17.47;;;4.30;99.90;;;;;;5047002;28;20248;-87
2021/01/06 09:28:19;;;;;;;27.87;17.73;;;4.30;99.90;;;;;;5046532;28;20177;-82
2021/01/06 09:30:46;;;;;;;25.53;16.93;;;4.40;99.90;;;;;;5032354;28;20201;-83
2021/01/06 09:33:33;;;;;;;23.83;15.40;;;4.30;99.90;;;;;;5030765;28;20244;-88
2021/01/06 09:36:01;;;;;;;24.33;16.90;;;4.30;99.90;;;;;;5033986;28;20216;-85
2021/01/06 09:38:34;;;;;;;21.43;15.67;;;4.30;99.90;;;;;;5034496;28;20170;-86
2021/01/06 09:41:14;;;;;;;26.03;16.67;;;4.30;99.90;;;;;;5034137;28;20193;-83
2021/01/06 09:43:49;;;;;;;23.87;16.13;;;4.30;99.90;;;;;;5035058;28;20188;-82
2021/01/06 09:46:20;;;;;;;27.00;17.20;;;4.70;99.90;;;;;;5034870;28;20597;-83
2021/01/06 09:48:53;;;;;;;26.43;17.07;;;4.70;99.90;;;;;;5034813;28;20577;-83
2021/01/06 09:51:20;;;;;;;30.43;18.07;;;4.90;99.90;;;;;;5033193;28;20176;-83
2021/01/06 09:53:51;;;;;;;27.80;18.60;;;5.00;99.90;;;;;;5030607;28;20223;-83
2021/01/06 09:56:19;;;;;;;23.77;16.60;;;4.90;99.90;;;;;;5034781;28;20208;-86
2021/01/06 09:58:47;;;;;;;25.77;18.27;;;4.90;99.90;;;;;;5032846;28;20188;-89
2021/01/06 10:01:32;;;;;;;24.93;17.43;;;4.70;99.90;;;;;;5033676;28;20240;-88
2021/01/06 10:04:04;;;;;;;25.43;15.53;;;4.60;99.90;;;;;;5029271;28;20185;-86
2021/01/06 10:06:48;;;;;;;22.63;15.93;;;4.30;99.90;;;;;;5032944;28;20501;-84
2021/01/06 10:09:25;;;;;;;27.50;17.00;;;4.30;99.90;;;;;;5033365;28;20169;-83
2021/01/06 10:12:02;;;;;;;25.13;17.30;;;4.30;99.90;;;;;;5034414;28;20176;-83
2021/01/06 10:14:37;;;;;;;19.77;14.03;;;4.30;99.90;;;;;;5033515;28;20223;-84
2021/01/06 10:17:10;;;;;;;24.23;16.37;;;4.30;99.90;;;;;;5033568;28;20178;-86
2021/01/06 10:19:42;;;;;;;22.73;14.93;;;4.30;99.90;;;;;;5034711;28;20526;-86
2021/01/06 10:22:14;;;;;;;23.80;16.43;;;4.30;99.90;;;;;;5026910;28;20255;-88
2021/01/06 10:24:48;;;;;;;23.70;17.53;;;4.30;99.90;;;;;;5015675;28;20170;-85
2021/01/06 10:27:38;;;;;;;22.90;15.63;;;4.30;99.90;;;;;;5011786;28;20634;-84
2021/01/06 10:30:11;;;;;;;25.10;16.80;;;4.30;99.90;;;;;;5016730;28;20662;-85
2021/01/06 10:33:05;;;;;;;28.97;19.90;;;4.30;99.90;;;;;;5029597;28;20221;-84
2021/01/06 10:35:45;;;;;;;28.90;19.70;;;4.40;99.90;;;;;;5027630;28;20228;-84
2021/01/06 10:38:36;;;;;;;28.80;18.47;;;4.40;99.90;;;;;;5032979;28;20509;-84
2021/01/06 10:41:24;;;;;;;26.80;17.03;;;4.30;99.90;;;;;;5033405;28;20618;-86
2021/01/06 10:43:50;;;;;;;26.70;17.87;;;4.30;99.90;;;;;;5032188;28;20194;-86
2021/01/06 10:46:52;;;;;;;26.80;18.23;;;4.30;99.90;;;;;;5032554;28;20174;-84
2021/01/06 10:49:21;;;;;;;25.17;17.10;;;4.30;99.90;;;;;;5017855;28;20235;-85
2021/01/06 10:51:58;;;;;;;26.93;18.00;;;4.30;99.90;;;;;;5031898;28;20181;-84
2021/01/06 10:54:50;;;;;;;24.30;17.07;;;4.20;99.90;;;;;;5032784;28;20169;-85
2021/01/06 10:57:23;;;;;;;28.43;18.93;;;4.20;99.90;;;;;;5013003;28;20239;-84
2021/01/06 11:00:12;;;;;;;26.57;18.00;;;4.20;99.90;;;;;;5024173;28;20177;-84
2021/01/06 11:03:02;;;;;;;27.60;18.67;;;4.30;99.90;;;;;;5015914;28;20210;-87
2021/01/06 11:05:51;;;;;;;26.53;18.40;;;4.30;99.90;;;;;;5015802;28;20180;-87
2021/01/06 11:08:48;;;;;;;25.77;16.50;;;4.30;99.90;;;;;;5003572;28;20583;-86
2021/01/06 11:11:25;;;;;;;25.80;16.70;;;4.30;99.90;;;;;;5014338;28;20174;-86
2021/01/06 11:14:19;;;;;;;25.40;18.47;;;4.30;99.90;;;;;;5013476;28;20178;-86
2021/01/06 11:16:55;;;;;;;30.30;17.97;;;4.40;99.90;;;;;;5015462;28;20177;-86
2021/01/06 11:19:59;;;;;;;25.00;16.60;;;4.40;99.90;;;;;;5037472;28;20185;-86
2021/01/06 11:22:43;;;;;;;26.23;19.10;;;4.40;99.90;;;;;;5016098;28;20228;-85
2021/01/06 11:25:32;;;;;;;27.50;19.67;;;4.20;99.90;;;;;;5017386;28;20166;-85
2021/01/06 11:28:05;;;;;;;28.57;20.43;;;4.40;99.90;;;;;;5018522;28;20571;-84
2021/01/06 11:30:37;;;;;;;31.73;20.17;;;4.40;99.90;;;;;;5014912;28;20573;-83
2021/01/06 11:33:29;;;;;;;30.13;18.20;;;4.40;99.90;;;;;;5023882;28;20208;-87
2021/01/06 11:39:37;;;;;;;30.90;20.30;;;4.30;99.90;;;;;;5033020;28;20246;-84
2021/01/06 11:43:07;;;;;;;27.20;18.00;;;4.40;99.90;;;;;;5033022;28;20229;-86
2021/01/06 11:45:48;;;;;;;27.97;18.23;;;4.30;99.90;;;;;;5048053;28;20188;-88
2021/01/06 11:48:35;;;;;;;31.13;18.67;;;4.20;99.90;;;;;;5016655;28;20170;-87
2021/01/06 11:51:33;;;;;;;28.17;17.33;;;4.10;99.90;;;;;;5033128;28;20180;-87
2021/01/06 11:54:27;;;;;;;28.10;18.30;;;4.30;99.90;;;;;;5012555;28;20642;-86
2021/01/06 11:57:16;;;;;;;34.83;19.63;;;4.20;99.90;;;;;;5013226;28;20205;-88
2021/01/06 12:00:05;;;;;;;28.07;18.40;;;4.20;99.90;;;;;;5033917;28;20173;-88
2021/01/06 12:02:43;;;;;;;29.60;18.97;;;4.20;99.90;;;;;;5032453;28;20213;-87
2021/01/06 12:05:23;;;;;;;28.43;19.03;;;4.10;99.90;;;;;;5029151;28;20185;-89
2021/01/06 12:08:57;;;;;;;26.40;16.90;;;4.20;99.90;;;;;;5015153;28;20205;-90
2021/01/06 12:11:36;;;;;;;28.13;18.23;;;4.20;99.90;;;;;;5010656;28;20213;-87
2021/01/06 12:14:23;;;;;;;28.13;16.53;;;4.20;99.90;;;;;;5001153;28;20259;-87
2021/01/06 12:17:15;;;;;;;25.57;18.00;;;4.20;99.90;;;;;;5033427;28;20189;-85
2021/01/06 12:20:06;;;;;;;29.80;18.90;;;4.20;99.90;;;;;;5031618;28;20173;-86
2021/01/06 12:22:33;;;;;;;27.83;18.03;;;4.30;99.90;;;;;;5032049;28;20205;-86
2021/01/06 12:25:20;;;;;;;25.40;17.53;;;4.30;99.90;;;;;;5033817;28;20656;-88
2021/01/06 12:27:56;;;;;;;24.60;16.53;;;4.30;99.90;;;;;;5031127;28;20181;-85
2021/01/06 12:30:36;;;;;;;23.87;16.57;;;4.20;99.90;;;;;;5031648;28;20550;-86
2021/01/06 12:33:23;;;;;;;25.73;17.60;;;4.30;99.90;;;;;;5012495;28;20267;-88
2021/01/06 12:35:50;;;;;;;27.57;18.77;;;4.30;99.90;;;;;;5012824;28;20185;-86
2021/01/06 12:38:18;;;;;;;24.67;16.30;;;4.30;99.90;;;;;;5013103;28;20171;-87
2021/01/06 12:41:05;;;;;;;27.87;16.90;;;4.30;99.90;;;;;;5012204;28;20171;-85
2021/01/06 12:43:39;;;;;;;25.33;18.07;;;4.30;99.90;;;;;;5030774;28;20549;-86
2021/01/06 12:46:23;;;;;;;27.90;17.63;;;4.20;99.90;;;;;;5032824;28;20161;-86
2021/01/06 12:49:15;;;;;;;24.27;17.80;;;4.30;99.90;;;;;;5031350;28;20172;-86
2021/01/06 12:52:05;;;;;;;25.60;17.47;;;4.30;99.90;;;;;;5030725;28;20626;-87
2021/01/06 12:55:10;;;;;;;24.87;17.50;;;4.20;99.90;;;;;;5053782;28;20217;-87
2021/01/06 12:58:09;;;;;;;24.43;17.27;;;4.30;99.90;;;;;;5057378;28;20188;-87
2021/01/06 13:09:17;;;;;;;23.00;15.63;;;4.30;99.90;;;;;;5853216;23;20213;-87
2021/01/06 13:12:35;;;;;;;21.87;15.07;;;4.30;99.90;;;;;;5041470;28;20163;-87
2021/01/06 13:20:50;;;;;;;21.80;14.50;;;4.20;99.90;;;;;;5336387;23;20240;-87
2021/01/06 13:41:44;;;;;;;20.03;14.00;;;4.40;99.90;;;;;;5481883;23;20328;-89
2021/01/06 13:47:24;;;;;;;18.03;13.03;;;4.30;99.90;;;;;;5220699;23;20225;-86
2021/01/06 13:50:22;;;;;;;20.20;12.70;;;4.20;99.90;;;;;;5038405;28;20205;-85
2021/01/06 13:52:59;;;;;;;19.00;12.33;;;4.10;99.90;;;;;;5033265;28;20170;-87
2021/01/06 13:55:44;;;;;;;22.30;13.67;;;4.00;99.90;;;;;;5030549;28;20189;-88
2021/01/06 13:58:20;;;;;;;17.87;13.07;;;4.20;99.90;;;;;;5023696;28;20220;-87
2021/01/06 14:00:56;;;;;;;20.30;14.80;;;4.30;99.90;;;;;;5033960;28;20268;-86
2021/01/06 14:03:24;;;;;;;19.10;13.33;;;4.30;99.90;;;;;;5034354;28;20173;-85
2021/01/06 14:06:13;;;;;;;18.70;12.80;;;4.40;99.90;;;;;;5033531;28;20193;-87
2021/01/06 14:09:04;;;;;;;17.27;12.17;;;4.40;99.90;;;;;;5015238;28;20181;-87
2021/01/06 14:11:41;;;;;;;16.93;12.73;;;4.40;99.90;;;;;;5013976;28;20182;-84
2021/01/06 14:14:23;;;;;;;16.77;12.43;;;4.30;99.90;;;;;;5014688;28;20179;-86
2021/01/06 14:17:13;;;;;;;14.63;10.93;;;4.30;99.90;;;;;;5014286;28;20182;-86
2021/01/06 14:20:08;;;;;;;17.47;12.63;;;4.30;99.90;;;;;;5016180;28;20234;-86
2021/01/06 14:23:09;;;;;;;15.43;11.37;;;4.20;99.90;;;;;;5012833;28;20246;-86
2021/01/06 14:25:55;;;;;;;15.23;11.27;;;4.30;99.90;;;;;;5020782;28;20213;-86
2021/01/06 14:28:43;;;;;;;16.27;12.07;;;4.60;99.90;;;;;;5020372;28;20256;-86
2021/01/06 14:31:21;;;;;;;14.53;11.83;;;4.70;99.90;;;;;;5004671;28;20190;-86
2021/01/06 14:33:58;;;;;;;14.73;10.93;;;4.50;99.90;;;;;;5015426;28;20650;-87
2021/01/06 14:36:24;;;;;;;15.10;11.57;;;4.30;99.90;;;;;;5014522;28;20173;-87
2021/01/06 14:39:02;;;;;;;14.97;11.70;;;4.30;99.90;;;;;;5014307;28;20637;-86
2021/01/06 14:41:31;;;;;;;16.30;11.53;;;4.60;99.90;;;;;;5013806;28;20213;-88
2021/01/06 14:44:23;;;;;;;13.07;10.40;;;4.50;99.90;;;;;;5014088;28;20195;-86
2021/01/06 14:47:17;;;;;;;15.30;11.00;;;4.50;99.90;;;;;;4996148;28;20198;-88
2021/01/06 14:49:58;;;;;;;14.90;10.67;;;4.40;99.90;;;;;;4994316;28;20639;-87
2021/01/06 14:52:31;;;;;;;15.77;10.90;;;4.20;99.90;;;;;;5001998;28;20177;-86
2021/01/06 14:55:01;;;;;;;16.63;11.63;;;4.20;99.90;;;;;;5013592;28;20192;-84
2021/01/06 14:58:05;;;;;;;13.43;10.77;;;4.20;99.90;;;;;;5013187;28;20197;-84
2021/01/06 15:00:47;;;;;;;17.27;11.37;;;4.20;99.90;;;;;;5005086;28;20171;-86
2021/01/06 15:03:38;;;;;;;15.90;12.20;;;4.10;99.90;;;;;;4996107;28;20187;-85
2021/01/06 15:06:15;;;;;;;18.60;12.13;;;4.10;99.90;;;;;;5000763;28;20194;-84
2021/01/06 15:09:15;;;;;;;19.93;13.30;;;4.10;99.90;;;;;;5013191;28;20236;-84
2021/01/06 15:11:45;;;;;;;17.27;12.87;;;4.10;99.90;;;;;;5010403;28;20228;-88
2021/01/06 15:14:16;;;;;;;17.53;13.37;;;4.20;99.90;;;;;;5015868;28;20177;-86
2021/01/06 15:16:48;;;;;;;16.60;12.13;;;4.30;99.90;;;;;;5016582;28;20178;-82
2021/01/06 15:19:18;;;;;;;17.43;12.07;;;4.30;99.90;;;;;;5013380;28;20193;-83
2021/01/06 15:21:48;;;;;;;20.27;13.20;;;4.30;99.90;;;;;;5014232;28;20210;-83
2021/01/06 15:24:36;;;;;;;17.17;13.57;;;4.20;99.90;;;;;;5013976;28;20162;-83
2021/01/06 15:27:32;;;;;;;17.83;12.73;;;4.20;99.90;;;;;;5011267;28;20183;-88
2021/01/06 15:30:14;;;;;;;16.63;12.33;;;4.20;99.90;;;;;;5010257;28;20174;-84
2021/01/06 15:32:51;;;;;;;17.93;12.60;;;4.10;99.90;;;;;;5012430;28;20189;-84
2021/01/06 15:35:25;;;;;;;16.77;12.40;;;4.40;99.90;;;;;;5012699;28;20174;-87
2021/01/06 15:37:56;;;;;;;15.77;11.57;;;4.30;99.90;;;;;;5013862;28;20176;-86
2021/01/06 15:40:40;;;;;;;17.23;12.33;;;4.30;99.90;;;;;;5012285;28;20560;-85
2021/01/06 15:43:26;;;;;;;15.37;11.93;;;4.30;99.90;;;;;;5012194;28;20247;-86
2021/01/06 15:46:06;;;;;;;17.97;12.93;;;4.30;99.90;;;;;;5013665;28;20186;-85
2021/01/06 15:48:32;;;;;;;16.03;12.10;;;4.20;99.90;;;;;;5012458;28;20182;-87
2021/01/06 15:51:19;;;;;;;17.20;12.03;;;4.10;99.90;;;;;;5014033;28;20177;-85
2021/01/06 15:53:47;;;;;;;15.23;11.37;;;4.10;99.90;;;;;;5011803;28;20216;-85
2021/01/06 15:56:32;;;;;;;16.47;11.70;;;4.00;99.90;;;;;;5012420;28;20211;-85
2021/01/06 15:59:00;;;;;;;17.23;11.63;;;4.00;99.90;;;;;;5012679;28;20166;-84
2021/01/06 16:01:27;;;;;;;16.17;11.80;;;4.10;99.90;;;;;;5008848;28;20704;-83
2021/01/06 16:04:06;;;;;;;18.40;13.73;;;4.10;99.90;;;;;;5007844;28;20186;-84
2021/01/06 16:06:57;;;;;;;16.27;11.17;;;4.10;99.90;;;;;;5008479;28;20202;-84
2021/01/06 16:09:34;;;;;;;17.90;13.50;;;4.00;99.90;;;;;;5010479;28;20213;-84
2021/01/06 16:12:09;;;;;;;18.43;13.60;;;4.00;99.90;;;;;;5010881;28;20488;-86
2021/01/06 16:14:38;;;;;;;18.47;14.30;;;4.10;99.90;;;;;;5012772;28;20178;-84
2021/01/06 16:17:16;;;;;;;17.90;13.63;;;4.10;99.90;;;;;;5012598;28;20174;-84
2021/01/06 16:19:51;;;;;;;19.90;13.60;;;4.00;99.90;;;;;;5011165;28;20178;-83
2021/01/06 16:22:32;;;;;;;18.23;12.93;;;4.10;99.90;;;;;;5012391;28;20209;-84
2021/01/06 16:25:19;;;;;;;17.40;13.63;;;4.20;99.90;;;;;;5011279;28;20261;-84
2021/01/06 16:27:46;;;;;;;16.90;12.03;;;4.20;99.90;;;;;;5011055;28;20510;-85
2021/01/06 16:30:16;;;;;;;15.30;11.90;;;4.20;99.90;;;;;;5011917;28;20177;-85
2021/01/06 16:33:00;;;;;;;16.43;12.20;;;4.20;99.90;;;;;;5029569;28;20186;-84
2021/01/06 16:35:34;;;;;;;17.00;12.77;;;4.20;99.90;;;;;;5033956;28;20178;-83
2021/01/06 16:38:13;;;;;;;17.27;12.60;;;4.20;99.90;;;;;;5013913;28;20174;-88
2021/01/06 16:40:43;;;;;;;17.83;14.40;;;4.20;99.90;;;;;;5011910;28;20709;-85
2021/01/06 16:43:45;;;;;;;19.53;14.90;;;4.30;99.90;;;;;;5013884;28;20154;-84
2021/01/06 16:46:25;;;;;;;15.57;11.33;;;4.20;99.90;;;;;;5012473;28;20267;-84
2021/01/06 16:49:08;;;;;;;16.57;12.53;;;4.00;99.90;;;;;;5015292;28;20261;-84
2021/01/06 16:51:51;;;;;;;18.07;13.07;;;3.90;99.90;;;;;;5014895;28;20189;-83
2021/01/06 16:54:21;;;;;;;17.67;13.37;;;3.90;99.90;;;;;;5015868;28;20180;-86
2021/01/06 16:56:58;;;;;;;18.70;14.33;;;4.00;99.90;;;;;;5014120;28;20182;-85
2021/01/06 16:59:27;;;;;;;19.20;14.30;;;4.10;99.90;;;;;;5014241;28;20261;-86
2021/01/06 17:02:17;;;;;;;20.00;13.53;;;4.10;99.90;;;;;;5014053;28;20616;-84
2021/01/06 17:04:43;;;;;;;17.83;12.60;;;4.00;99.90;;;;;;5013993;28;20554;-86
2021/01/06 17:07:22;;;;;;;16.50;12.57;;;4.00;99.90;;;;;;5014376;28;20209;-84
2021/01/06 17:09:54;;;;;;;15.57;12.03;;;4.00;99.90;;;;;;5014350;28;20174;-83
2021/01/06 17:12:26;;;;;;;17.57;12.83;;;4.10;99.90;;;;;;5015140;28;20568;-86
2021/01/06 17:14:52;;;;;;;19.30;14.27;;;4.00;99.90;;;;;;5014069;28;20217;-84
2021/01/06 17:17:21;;;;;;;18.17;12.53;;;4.10;99.90;;;;;;5014226;28;20206;-84
2021/01/06 17:19:51;;;;;;;17.80;12.90;;;4.10;99.90;;;;;;5015376;28;20228;-84
2021/01/06 17:22:26;;;;;;;20.67;14.97;;;4.10;99.90;;;;;;5015219;28;20221;-85
2021/01/06 17:25:09;;;;;;;16.50;12.40;;;4.00;99.90;;;;;;5013905;28;20174;-82
2021/01/06 17:27:37;;;;;;;21.20;12.80;;;4.10;99.90;;;;;;5015964;28;20224;-83
2021/01/06 17:30:21;;;;;;;18.63;13.20;;;4.10;99.90;;;;;;5015520;28;20169;-83
2021/01/06 17:33:04;;;;;;;17.90;12.90;;;4.20;99.90;;;;;;5012838;28;20182;-84
2021/01/06 17:35:30;;;;;;;17.60;13.47;;;4.20;99.90;;;;;;5013757;28;20204;-83
2021/01/06 17:38:09;;;;;;;17.50;13.57;;;4.30;99.90;;;;;;5017117;28;20170;-83
2021/01/06 17:40:36;;;;;;;20.37;15.40;;;4.20;99.90;;;;;;5013285;28;20185;-84
2021/01/06 17:43:03;;;;;;;19.37;14.53;;;4.30;99.90;;;;;;5016571;28;20272;-88
2021/01/06 17:45:35;;;;;;;24.47;15.73;;;4.30;99.90;;;;;;5016898;28;20194;-84
2021/01/06 17:48:05;;;;;;;21.03;15.43;;;4.30;99.90;;;;;;5014430;28;20179;-85
2021/01/06 17:50:32;;;;;;;21.73;16.30;;;4.40;99.90;;;;;;5014711;28;20205;-84
2021/01/06 17:52:59;;;;;;;22.30;15.90;;;4.50;99.90;;;;;;5013664;28;20166;-85
2021/01/06 17:55:26;;;;;;;25.87;18.30;;;4.40;99.90;;;;;;5015867;28;20170;-85
2021/01/06 17:57:56;;;;;;;24.83;17.40;;;4.40;99.90;;;;;;5013393;28;20214;-84
2021/01/06 18:00:22;;;;;;;24.77;18.13;;;4.30;99.90;;;;;;5012921;28;20184;-84
2021/01/06 18:02:50;;;;;;;24.60;18.93;;;4.20;99.90;;;;;;5013112;28;20214;-85
2021/01/06 18:05:16;;;;;;;25.63;17.93;;;4.20;99.90;;;;;;5014205;28;20705;-84
2021/01/06 18:07:42;;;;;;;28.20;19.63;;;4.10;99.90;;;;;;5013377;28;20198;-84
2021/01/06 18:10:24;;;;;;;25.87;19.97;;;4.10;99.90;;;;;;5013432;28;20185;-83
2021/01/06 18:12:50;;;;;;;27.53;20.97;;;4.20;99.90;;;;;;5013483;28;20173;-83
2021/01/06 18:15:16;;;;;;;31.93;20.00;;;4.10;99.90;;;;;;5013163;28;20182;-82
2021/01/06 18:17:42;;;;;;;25.93;19.07;;;4.00;99.90;;;;;;5014561;28;20661;-83
2021/01/06 18:20:31;;;;;;;26.47;19.00;;;4.10;99.90;;;;;;5013162;28;20244;-82
2021/01/06 18:22:56;;;;;;;26.57;19.03;;;4.20;99.90;;;;;;5013602;28;20215;-85
2021/01/06 18:25:40;;;;;;;26.73;20.13;;;4.10;99.90;;;;;;5013285;28;20658;-84
2021/01/06 18:28:18;;;;;;;24.23;16.53;;;4.10;99.90;;;;;;5013055;28;20170;-84
2021/01/06 18:30:46;;;;;;;27.07;18.10;;;3.90;99.90;;;;;;5012420;28;20245;-82
2021/01/06 18:33:31;;;;;;;27.27;18.73;;;3.80;99.90;;;;;;4995426;28;20181;-83
2021/01/06 18:36:12;;;;;;;25.23;18.23;;;3.80;99.90;;;;;;4994181;28;20171;-82
2021/01/06 18:38:55;;;;;;;27.70;19.87;;;3.90;99.90;;;;;;4994333;28;20171;-87
2021/01/06 18:41:23;;;;;;;24.57;18.63;;;4.10;99.90;;;;;;4994848;28;20265;-85
2021/01/06 18:43:50;;;;;;;28.60;19.60;;;3.80;99.90;;;;;;5006054;28;20198;-88
2021/01/06 18:46:38;;;;;;;25.43;19.00;;;4.00;99.90;;;;;;5013069;28;20197;-87
2021/01/06 18:49:13;;;;;;;25.17;17.83;;;4.00;99.90;;;;;;4994538;28;20175;-85
2021/01/06 18:51:48;;;;;;;25.37;18.57;;;4.20;99.90;;;;;;5001113;28;20273;-87
2021/01/06 18:54:22;;;;;;;28.30;18.37;;;4.20;99.90;;;;;;5013104;28;20170;-85
2021/01/06 18:57:09;;;;;;;25.27;18.43;;;4.40;99.90;;;;;;5013537;28;20698;-87
2021/01/06 18:59:35;;;;;;;22.80;17.37;;;4.30;99.90;;;;;;5014552;28;20177;-85
2021/01/06 19:02:02;;;;;;;24.77;18.10;;;4.40;99.90;;;;;;5012881;28;20679;-85
2021/01/06 19:04:28;;;;;;;22.63;18.60;;;4.70;99.90;;;;;;5013058;28;20175;-88
2021/01/06 19:06:54;;;;;;;25.20;18.83;;;4.70;99.90;;;;;;5014277;28;20201;-85
2021/01/06 19:09:31;;;;;;;23.53;18.10;;;4.70;99.90;;;;;;5012775;28;20202;-87
2021/01/06 19:12:11;;;;;;;23.33;16.60;;;4.80;99.90;;;;;;5013138;28;20232;-85
2021/01/06 19:14:39;;;;;;;22.93;16.87;;;4.50;99.90;;;;;;5012372;28;20198;-84
2021/01/06 19:17:18;;;;;;;22.73;16.60;;;4.40;99.90;;;;;;5013714;28;20206;-84
2021/01/06 19:20:10;;;;;;;22.27;16.90;;;4.40;99.90;;;;;;5016151;28;20180;-87
2021/01/06 19:23:00;;;;;;;21.83;16.20;;;4.30;99.90;;;;;;5003789;28;20252;-84
2021/01/06 19:25:33;;;;;;;23.57;18.07;;;4.40;99.90;;;;;;5012727;28;20166;-82
2021/01/06 19:28:11;;;;;;;23.40;17.47;;;4.40;99.90;;;;;;5012673;28;20184;-83
2021/01/06 19:30:40;;;;;;;25.27;19.43;;;4.40;99.90;;;;;;5012690;28;20241;-83
2021/01/06 19:33:06;;;;;;;26.50;18.10;;;4.40;99.90;;;;;;5013801;28;20300;-83
2021/01/06 19:35:34;;;;;;;25.87;18.97;;;4.40;99.90;;;;;;4995765;28;20194;-84
2021/01/06 19:38:15;;;;;;;28.97;19.23;;;4.30;99.90;;;;;;4992915;28;20649;-82
2021/01/06 19:40:42;;;;;;;27.33;18.67;;;4.20;99.90;;;;;;4993258;28;20241;-87
2021/01/06 19:43:13;;;;;;;26.40;18.53;;;4.10;99.90;;;;;;5013200;28;20210;-84
2021/01/06 19:45:41;;;;;;;26.53;18.93;;;4.00;99.90;;;;;;5014902;28;20225;-85
2021/01/06 19:48:07;;;;;;;27.20;18.97;;;4.00;99.90;;;;;;5000923;28;20174;-85
2021/01/06 19:50:39;;;;;;;25.27;18.73;;;4.00;99.90;;;;;;5012783;28;20178;-83
2021/01/06 19:53:21;;;;;;;29.80;20.50;;;4.10;99.90;;;;;;5004246;28;20521;-83
2021/01/06 19:56:03;;;;;;;26.50;18.90;;;4.10;99.90;;;;;;5010768;28;20174;-82
2021/01/06 19:58:33;;;;;;;25.93;19.60;;;4.20;99.90;;;;;;5011378;28;20220;-83
2021/01/06 20:01:01;;;;;;;29.73;20.90;;;4.20;99.90;;;;;;5012167;28;20269;-84
2021/01/06 20:03:30;;;;;;;29.73;19.97;;;4.30;99.90;;;;;;5011349;28;20192;-86
2021/01/06 20:06:02;;;;;;;26.37;19.33;;;4.40;99.90;;;;;;5011555;28;20178;-85
2021/01/06 20:08:43;;;;;;;28.03;19.90;;;4.30;99.90;;;;;;5011836;28;20269;-88
2021/01/06 20:11:09;;;;;;;28.73;18.90;;;4.30;99.90;;;;;;5011568;28;20162;-85
2021/01/06 20:13:42;;;;;;;26.20;19.00;;;4.40;99.90;;;;;;5009205;28;20186;-83
2021/01/06 20:16:10;;;;;;;26.83;18.90;;;4.40;99.90;;;;;;5003680;28;20174;-84
2021/01/06 20:18:37;;;;;;;27.07;19.03;;;4.20;99.90;;;;;;5009973;28;20178;-85
2021/01/06 20:21:03;;;;;;;25.50;18.63;;;4.40;99.90;;;;;;5006290;28;20170;-85
2021/01/06 20:23:32;;;;;;;28.93;18.13;;;4.30;99.90;;;;;;5010101;28;20170;-83
2021/01/06 20:25:59;;;;;;;30.63;19.67;;;4.30;99.90;;;;;;5010800;28;20163;-84
2021/01/06 20:28:26;;;;;;;26.93;18.43;;;4.50;99.90;;;;;;5008266;28;20217;-85
2021/01/06 20:30:52;;;;;;;28.67;18.60;;;4.50;99.90;;;;;;5007435;28;20201;-84
2021/01/06 20:33:18;;;;;;;27.30;18.73;;;4.50;99.90;;;;;;5010044;28;20264;-84
2021/01/06 20:35:44;;;;;;;25.90;18.07;;;4.40;99.90;;;;;;5011483;28;20241;-84
2021/01/06 20:38:09;;;;;;;26.03;19.50;;;4.50;99.90;;;;;;5011043;28;20185;-85
2021/01/06 20:40:35;;;;;;;25.30;17.90;;;4.50;99.90;;;;;;5011010;28;20174;-84
2021/01/06 20:43:01;;;;;;;24.03;17.77;;;4.40;99.90;;;;;;5010517;28;20229;-85
2021/01/06 20:45:27;;;;;;;25.37;18.80;;;4.40;99.90;;;;;;5010729;28;20241;-85
2021/01/06 20:47:52;;;;;;;26.40;18.70;;;4.40;99.90;;;;;;5010729;28;20186;-86
2021/01/06 20:50:18;;;;;;;28.30;18.63;;;4.30;99.90;;;;;;5010631;28;20178;-87
2021/01/06 20:52:44;;;;;;;26.63;18.90;;;4.20;99.90;;;;;;5010934;28;20185;-87
2021/01/06 20:55:10;;;;;;;26.67;18.63;;;4.20;99.90;;;;;;5010947;28;20174;-86
2021/01/06 20:57:36;;;;;;;29.80;19.03;;;4.20;99.90;;;;;;5011363;28;20205;-85
2021/01/06 21:00:09;;;;;;;27.40;18.93;;;4.30;99.90;;;;;;5010806;28;20630;-87
2021/01/06 21:02:34;;;;;;;23.60;17.23;;;4.20;99.90;;;;;;5010732;28;20667;-85
2021/01/06 21:05:00;;;;;;;26.60;18.87;;;4.20;99.90;;;;;;5010928;28;20178;-86
2021/01/06 21:07:28;;;;;;;26.10;18.77;;;4.30;99.90;;;;;;5011091;28;20206;-83
2021/01/06 21:10:00;;;;;;;25.40;19.23;;;4.30;99.90;;;;;;5010688;28;20438;-84
2021/01/06 21:12:25;;;;;;;23.67;18.27;;;4.40;99.90;;;;;;5010187;28;20187;-85
2021/01/06 21:14:51;;;;;;;25.43;18.73;;;4.20;99.90;;;;;;5010268;28;20285;-84
2021/01/06 21:17:17;;;;;;;27.53;18.37;;;4.10;99.90;;;;;;5010556;28;20167;-86
2021/01/06 21:19:42;;;;;;;24.80;17.37;;;4.00;99.90;;;;;;5010159;28;20170;-84
2021/01/06 21:22:08;;;;;;;25.70;18.80;;;4.40;99.90;;;;;;5007951;28;20654;-85
2021/01/06 21:24:34;;;;;;;26.23;18.73;;;4.20;99.90;;;;;;5011155;28;20189;-86
2021/01/06 21:26:59;;;;;;;24.83;18.33;;;4.30;99.90;;;;;;5011529;28;20657;-85
2021/01/06 21:29:25;;;;;;;28.50;20.30;;;4.20;99.90;;;;;;5012879;28;20185;-85
2021/01/06 21:31:56;;;;;;;28.50;20.57;;;4.40;99.90;;;;;;5014512;28;20189;-86
2021/01/06 21:34:22;;;;;;;25.60;19.13;;;4.30;99.90;;;;;;5014222;28;20171;-85
2021/01/06 21:36:48;;;;;;;27.73;20.10;;;4.30;99.90;;;;;;5014648;28;20556;-87
2021/01/06 21:39:16;;;;;;;26.97;19.67;;;4.40;99.90;;;;;;5014801;28;20220;-87
2021/01/06 21:41:42;;;;;;;26.30;20.03;;;4.30;99.90;;;;;;5014367;28;20198;-88
2021/01/06 21:44:08;;;;;;;26.67;19.57;;;4.50;99.90;;;;;;5015454;28;20305;-86
2021/01/06 21:46:35;;;;;;;26.67;18.03;;;4.30;99.90;;;;;;5014405;28;20194;-87
2021/01/06 21:49:03;;;;;;;27.90;19.07;;;4.40;99.90;;;;;;5015847;28;20241;-87
2021/01/06 21:51:30;;;;;;;26.73;18.43;;;4.40;99.90;;;;;;5013732;28;20217;-86
2021/01/06 21:53:56;;;;;;;24.80;18.17;;;4.40;99.90;;;;;;5013895;28;20170;-87
2021/01/06 21:56:21;;;;;;;26.50;18.30;;;4.30;99.90;;;;;;5014099;28;20188;-87
2021/01/06 21:58:47;;;;;;;24.07;18.23;;;4.20;99.90;;;;;;5014466;28;20226;-87
2021/01/06 22:01:13;;;;;;;26.87;18.60;;;4.30;99.90;;;;;;5015202;28;20883;-85
2021/01/06 22:03:38;;;;;;;31.60;21.20;;;4.20;99.90;;;;;;5011295;28;20192;-88
2021/01/06 22:06:04;;;;;;;30.93;22.13;;;4.40;99.90;;;;;;5013479;28;20198;-86
2021/01/06 22:08:30;;;;;;;29.27;20.97;;;4.20;99.90;;;;;;5013721;28;20177;-86
2021/01/06 22:10:55;;;;;;;31.30;21.23;;;4.10;99.90;;;;;;5012893;28;20209;-88
2021/01/06 22:13:21;;;;;;;32.43;21.60;;;4.00;99.90;;;;;;5013967;28;20174;-87
2021/01/06 22:15:50;;;;;;;33.00;21.40;;;3.90;99.90;;;;;;5013770;28;20900;-87
2021/01/06 22:18:17;;;;;;;34.47;22.33;;;3.80;99.90;;;;;;5015310;28;20170;-87
2021/01/06 22:20:44;;;;;;;32.97;21.77;;;3.70;99.90;;;;;;5016028;28;20170;-90
2021/01/06 22:23:10;;;;;;;30.90;22.63;;;3.80;99.90;;;;;;5015977;28;20214;-87
2021/01/06 22:25:38;;;;;;;35.87;24.47;;;3.80;99.90;;;;;;5014157;28;20650;-89
2021/01/06 22:28:03;;;;;;;34.73;23.47;;;3.70;99.90;;;;;;5015578;28;20189;-90
2021/01/06 22:30:29;;;;;;;39.00;25.97;;;3.60;99.90;;;;;;5015331;28;20266;-90
2021/01/06 22:32:55;;;;;;;37.83;25.43;;;3.50;99.90;;;;;;5015467;28;20271;-87